Time;durP1;ratioP1;P1;durP2;ratioP2;P2;SDS_P1;SDS_P2;PMS_P1;PMS_P2;Temp;Humidity;BMP_temperature;BMP_pressure;BME280_temperature;BME280_humidity;BME280_pressure;Samples;Min_cycle;Max_cycle;Signal;HPM_P1;HPM_P2
2023/07/13 00:00:56;;;;;;;;;;;;;;;18.46;81.79;95901.78;5064170;28;20370;-79
2023/07/13 00:03:22;;;;;;;;;;;;;;;18.29;82.78;95898.09;5062578;28;19955;-79
2023/07/13 00:05:57;;;;;;;;;;;;;;;18.25;83.00;95896.72;5062577;28;20398;-79
2023/07/13 00:08:23;;;;;;;;;;;;;;;18.26;82.11;95892.31;5044761;28;20384;-79
2023/07/13 00:10:54;;;;;;;;;;;;;;;18.21;82.56;95891.91;5064473;28;19931;-79
2023/07/13 00:13:20;;;;;;;;;;;;;;;18.12;83.09;95891.75;5056073;28;19987;-79
2023/07/13 00:15:46;;;;;;;;;;;;;;;18.25;85.35;95883.63;5059511;28;20009;-79
2023/07/13 00:18:13;;;;;;;;;;;;;;;18.23;86.51;95889.97;5049769;28;19925;-78
2023/07/13 00:20:41;;;;;;;;;;;;;;;18.37;85.57;95879.03;5062415;28;19937;-79
2023/07/13 00:23:08;;;;;;;;;;;;;;;18.41;87.74;95884.81;5057667;28;19932;-79
2023/07/13 00:25:35;;;;;;;;;;;;;;;18.40;85.69;95877.94;5045528;28;19924;-79
2023/07/13 00:28:01;;;;;;;;;;;;;;;18.08;86.30;95882.53;5063703;28;20294;-79
2023/07/13 00:30:27;;;;;;;;;;;;;;;17.89;87.23;95885.16;5040714;28;19929;-81
2023/07/13 00:32:53;;;;;;;;;;;;;;;17.69;88.38;95870.38;5062354;28;19940;-78
2023/07/13 00:35:20;;;;;;;;;;;;;;;17.52;88.94;95880.56;5054753;28;20374;-78
2023/07/13 00:37:46;;;;;;;;;;;;;;;17.54;88.44;95878.66;5062035;28;19921;-78
2023/07/13 00:40:14;;;;;;;;;;;;;;;17.47;88.55;95871.47;5056114;28;19929;-79
2023/07/13 00:42:41;;;;;;;;;;;;;;;17.35;89.92;95870.75;5042565;28;19925;-78
2023/07/13 00:45:28;;;;;;;;;;;;;;;17.36;90.03;95869.81;5055930;28;19942;-79
2023/07/13 00:47:56;;;;;;;;;;;;;;;17.43;89.07;95865.69;5047539;28;19920;-79
2023/07/13 00:50:23;;;;;;;;;;;;;;;17.46;88.32;95869.81;5067241;28;19928;-78
2023/07/13 00:52:57;;;;;;;;;;;;;;;17.42;89.24;95864.00;5042300;28;19962;-79
2023/07/13 00:55:25;;;;;;;;;;;;;;;17.45;88.38;95858.50;5065356;28;20401;-79
2023/07/13 00:57:51;;;;;;;;;;;;;;;17.37;89.26;95868.84;5060704;28;19928;-79
2023/07/13 01:00:21;;;;;;;;;;;;;;;17.27;89.13;95868.81;5071951;28;19928;-79
2023/07/13 01:02:48;;;;;;;;;;;;;;;17.44;87.93;95877.81;5060808;28;19931;-79
2023/07/13 01:05:16;;;;;;;;;;;;;;;17.46;86.78;95881.09;5067824;28;19966;-79
2023/07/13 01:07:43;;;;;;;;;;;;;;;17.71;86.16;95878.94;5057267;28;19931;-79
2023/07/13 01:10:10;;;;;;;;;;;;;;;17.78;84.66;95877.44;5060458;28;19969;-79
2023/07/13 01:12:37;;;;;;;;;;;;;;;17.61;85.61;95881.53;5060068;28;19928;-79
2023/07/13 01:15:04;;;;;;;;;;;;;;;17.60;85.52;95885.94;5058993;28;19925;-79
2023/07/13 01:17:32;;;;;;;;;;;;;;;17.72;84.69;95891.06;5065396;28;19932;-78
2023/07/13 01:19:59;;;;;;;;;;;;;;;17.69;85.29;95893.94;5064936;28;20290;-79
2023/07/13 01:22:27;;;;;;;;;;;;;;;17.68;85.29;95887.88;5061774;28;20003;-79
2023/07/13 01:24:54;;;;;;;;;;;;;;;17.68;85.09;95885.25;5052780;28;19932;-78
2023/07/13 01:27:24;;;;;;;;;;;;;;;17.52;85.83;95890.22;5045846;28;20002;-79
2023/07/13 01:29:51;;;;;;;;;;;;;;;17.35;87.19;95897.78;5055810;28;19931;-78
2023/07/13 01:32:23;;;;;;;;;;;;;;;17.35;87.07;95896.94;5061913;28;20325;-79
2023/07/13 01:34:50;;;;;;;;;;;;;;;17.25;88.20;95891.69;5055715;28;19920;-79
2023/07/13 01:37:16;;;;;;;;;;;;;;;17.21;88.51;95886.88;5055470;28;19943;-78
2023/07/13 01:39:44;;;;;;;;;;;;;;;17.09;89.05;95886.97;5061062;28;19924;-79
2023/07/13 01:42:10;;;;;;;;;;;;;;;16.96;90.85;95891.59;5054190;28;19975;-79
2023/07/13 01:44:37;;;;;;;;;;;;;;;16.98;90.50;95884.44;5057364;28;19928;-78
2023/07/13 01:47:03;;;;;;;;;;;;;;;17.03;89.46;95882.25;5063358;28;19921;-79
2023/07/13 01:49:29;;;;;;;;;;;;;;;17.01;89.89;95880.72;5057437;28;19955;-78
2023/07/13 01:51:56;;;;;;;;;;;;;;;16.89;90.43;95883.44;5068833;28;19966;-78
2023/07/13 01:54:22;;;;;;;;;;;;;;;16.77;90.75;95878.47;5064097;28;19931;-79
2023/07/13 01:56:49;;;;;;;;;;;;;;;16.85;90.83;95891.69;5053088;28;19928;-79
2023/07/13 01:59:16;;;;;;;;;;;;;;;16.83;90.30;95886.56;5057664;28;19967;-78
2023/07/13 02:01:42;;;;;;;;;;;;;;;16.85;89.89;95887.28;5065998;28;19947;-79
2023/07/13 02:04:08;;;;;;;;;;;;;;;16.95;88.89;95876.88;5066638;28;19921;-79
2023/07/13 02:06:34;;;;;;;;;;;;;;;17.00;88.27;95884.31;5051661;28;19932;-78
2023/07/13 02:09:01;;;;;;;;;;;;;;;16.94;88.21;95888.28;5043409;28;19932;-79
2023/07/13 02:11:32;;;;;;;;;;;;;;;17.06;87.46;95883.78;5061279;28;19924;-79
2023/07/13 02:14:00;;;;;;;;;;;;;;;17.20;86.75;95880.78;5048423;28;19927;-79
2023/07/13 02:16:26;;;;;;;;;;;;;;;17.17;85.54;95884.50;5050994;28;19925;-79
2023/07/13 02:18:52;;;;;;;;;;;;;;;17.36;85.32;95886.34;5055540;28;19931;-78
2023/07/13 02:21:19;;;;;;;;;;;;;;;17.51;85.87;95878.91;5054116;28;19957;-79
2023/07/13 02:23:45;;;;;;;;;;;;;;;17.46;86.64;95886.34;5055966;28;20391;-79
2023/07/13 02:26:11;;;;;;;;;;;;;;;17.43;86.61;95884.00;5054653;28;19924;-79
2023/07/13 02:28:37;;;;;;;;;;;;;;;17.34;86.54;95884.81;5058047;28;19936;-79
2023/07/13 02:31:09;;;;;;;;;;;;;;;17.16;87.11;95885.44;5055637;28;19920;-79
2023/07/13 02:33:35;;;;;;;;;;;;;;;17.11;88.22;95894.69;5059125;28;19921;-79
2023/07/13 02:36:02;;;;;;;;;;;;;;;17.16;87.87;95892.47;5053284;28;19924;-79
2023/07/13 02:38:28;;;;;;;;;;;;;;;16.99;89.85;95900.97;5066902;28;19927;-79
2023/07/13 02:40:54;;;;;;;;;;;;;;;17.05;90.15;95893.41;5050114;28;19920;-79
2023/07/13 02:43:21;;;;;;;;;;;;;;;17.14;89.52;95900.47;5059826;28;19968;-79
2023/07/13 02:45:47;;;;;;;;;;;;;;;17.22;89.32;95904.22;5064174;28;19925;-79
2023/07/13 02:48:15;;;;;;;;;;;;;;;17.24;90.71;95908.34;5060318;28;19921;-79
2023/07/13 02:50:41;;;;;;;;;;;;;;;17.29;90.02;95902.72;5064985;28;19924;-79
2023/07/13 02:53:08;;;;;;;;;;;;;;;16.89;93.89;95903.56;5066147;28;20294;-79
2023/07/13 02:55:34;;;;;;;;;;;;;;;16.92;94.35;95905.91;5066873;28;19920;-79
2023/07/13 02:58:01;;;;;;;;;;;;;;;16.92;94.92;95900.69;5056795;28;19924;-79
2023/07/13 03:00:27;;;;;;;;;;;;;;;17.00;95.00;95894.78;5061829;28;19983;-79
2023/07/13 03:02:56;;;;;;;;;;;;;;;16.94;94.33;95903.97;5055085;28;19921;-78
2023/07/13 03:05:24;;;;;;;;;;;;;;;16.86;95.44;95899.41;5041411;28;20346;-78
2023/07/13 03:07:50;;;;;;;;;;;;;;;16.93;95.93;95899.72;5040011;28;19928;-78
2023/07/13 03:10:17;;;;;;;;;;;;;;;17.01;94.95;95902.47;5041720;28;19924;-78
2023/07/13 03:12:43;;;;;;;;;;;;;;;17.02;95.81;95898.94;5053006;28;20015;-80
2023/07/13 03:15:10;;;;;;;;;;;;;;;16.78;95.19;95896.63;5049525;28;19929;-78
2023/07/13 03:17:36;;;;;;;;;;;;;;;16.92;94.67;95898.06;5064920;28;20173;-79
2023/07/13 03:20:03;;;;;;;;;;;;;;;16.97;96.82;95895.88;5051612;28;19924;-78
2023/07/13 03:22:31;;;;;;;;;;;;;;;16.99;95.40;95900.97;5053725;28;19928;-79
2023/07/13 03:24:57;;;;;;;;;;;;;;;17.05;94.17;95900.44;5043337;28;19925;-80
2023/07/13 03:27:24;;;;;;;;;;;;;;;16.97;93.88;95905.50;5059008;28;19925;-79
2023/07/13 03:29:50;;;;;;;;;;;;;;;17.02;93.44;95906.78;5053493;28;19920;-79
2023/07/13 03:32:16;;;;;;;;;;;;;;;16.86;96.36;95911.66;5043807;28;20433;-79
2023/07/13 03:34:42;;;;;;;;;;;;;;;16.75;99.54;95917.81;5051221;28;19986;-79
2023/07/13 03:37:09;;;;;;;;;;;;;;;16.66;100.00;95922.00;5059597;28;19921;-79
2023/07/13 03:39:36;;;;;;;;;;;;;;;16.62;100.00;95928.44;5053675;28;20024;-78
2023/07/13 03:42:03;;;;;;;;;;;;;;;16.36;100.00;95922.78;5056791;28;19928;-79
2023/07/13 03:44:29;;;;;;;;;;;;;;;16.53;100.00;95923.97;5059597;28;19927;-79
2023/07/13 03:46:55;;;;;;;;;;;;;;;16.30;100.00;95925.09;5060177;28;19928;-79
2023/07/13 03:49:21;;;;;;;;;;;;;;;16.52;100.00;95927.56;5053551;28;19925;-79
2023/07/13 03:51:48;;;;;;;;;;;;;;;16.58;100.00;95931.47;5069571;28;20310;-79
2023/07/13 03:54:14;;;;;;;;;;;;;;;16.51;100.00;95935.53;5062530;28;19966;-79
2023/07/13 03:56:41;;;;;;;;;;;;;;;16.38;100.00;95935.72;5057299;28;19921;-79
2023/07/13 03:59:08;;;;;;;;;;;;;;;16.42;100.00;95937.94;5063750;28;19928;-79
2023/07/13 04:01:34;;;;;;;2.00;1.17;;;;;;;16.28;100.00;95942.66;5050440;28;20299;-79
2023/07/13 04:04:01;;;;;;;1.80;1.00;;;;;;;16.16;100.00;95947.94;5049366;28;20128;-79
2023/07/13 04:06:30;;;;;;;1.83;0.95;;;;;;;16.09;100.00;95949.44;5052116;28;20049;-79
2023/07/13 04:08:59;;;;;;;2.45;1.10;;;;;;;16.09;100.00;95949.44;5042470;28;20110;-79
2023/07/13 04:11:26;;;;;;;;;;;;;;;16.18;100.00;95950.44;5055256;28;20049;-79
2023/07/13 04:13:53;;;;;;;;;;;;;;;16.21;100.00;95952.81;5049279;28;19928;-78
2023/07/13 04:16:20;;;;;;;;;;;;;;;16.15;100.00;95954.13;5056807;28;19921;-79
2023/07/13 04:18:46;;;;;;;;;;;;;;;15.98;100.00;95952.06;5050404;28;19947;-79
2023/07/13 04:21:13;;;;;;;;;;;;;;;16.13;100.00;95945.63;5058990;28;20336;-79
2023/07/13 04:23:39;;;;;;;;;;;;;;;16.14;100.00;95956.88;5052442;28;19955;-79
2023/07/13 04:26:06;;;;;;;;;;;;;;;16.16;100.00;95958.41;5059202;28;20359;-79
2023/07/13 04:28:32;;;;;;;;;;;;;;;16.22;100.00;95957.09;5052719;28;19931;-79
2023/07/13 04:31:00;;;;;;;;;;;;;;;16.06;100.00;95954.91;5043495;28;19927;-79
2023/07/13 04:33:27;;;;;;;;;;;;;;;16.10;100.00;95961.53;5052760;28;20318;-79
2023/07/13 04:35:56;;;;;;;;;;;;;;;16.10;100.00;95952.88;5055120;28;19921;-79
2023/07/13 04:38:24;;;;;;;;;;;;;;;16.16;100.00;95953.19;5057367;28;19932;-79
2023/07/13 04:40:50;;;;;;;;;;;;;;;16.04;100.00;95948.13;5053444;28;19924;-79
2023/07/13 04:43:17;;;;;;;1.90;1.10;;;;;;;15.81;100.00;95958.66;5052144;28;19931;-78
2023/07/13 04:45:43;;;;;;;2.53;1.15;;;;;;;15.70;100.00;95954.31;5063676;28;20049;-78
2023/07/13 04:48:11;;;;;;;3.10;1.20;;;;;;;15.58;100.00;95962.28;5056017;28;20048;-78
2023/07/13 04:50:38;;;;;;;;;;;;;;;15.68;100.00;95963.22;5061101;28;20056;-79
2023/07/13 04:53:05;;;;;;;;;;;;;;;15.81;100.00;95968.28;5066893;28;19920;-79
2023/07/13 04:55:31;;;;;;;;;;;;;;;15.87;100.00;95967.78;5062053;28;20285;-82
2023/07/13 04:57:58;;;;;;;;;;;;;;;15.93;100.00;95972.53;5058284;28;19924;-82
2023/07/13 05:00:24;;;;;;;;;;;;;;;16.10;100.00;95968.56;5046642;28;19971;-77
2023/07/13 05:02:52;;;;;;;2.10;1.20;;;;;;;15.82;100.00;95988.22;5051644;28;19920;-77
2023/07/13 05:05:19;;;;;;;3.95;1.50;;;;;;;15.89;100.00;95978.94;5053741;28;24470;-77
2023/07/13 05:07:46;;;;;;;2.45;1.17;;;;;;;15.89;100.00;95968.50;5048040;28;24806;-77
2023/07/13 05:10:12;;;;;;;3.40;1.25;;;;;;;15.89;100.00;95974.53;5053031;28;24988;-77
2023/07/13 05:12:38;;;;;;;5.13;1.42;;;;;;;15.77;100.00;95978.16;5045418;28;24501;-77
2023/07/13 05:15:06;;;;;;;5.35;1.38;;;;;;;15.96;100.00;95978.31;5045087;28;24431;-77
2023/07/13 05:17:33;;;;;;;3.35;1.33;;;;;;;16.20;100.00;95972.03;5048288;28;24442;-77
2023/07/13 05:19:59;;;;;;;2.65;1.38;;;;;;;16.41;100.00;95972.91;5045199;28;24422;-77
2023/07/13 05:22:27;;;;;;;2.60;1.17;;;;;;;16.50;100.00;95975.69;5055354;28;24434;-77
2023/07/13 05:24:53;;;;;;;7.40;1.40;;;;;;;16.42;100.00;95979.78;5045201;28;24489;-77
2023/07/13 05:27:20;;;;;;;4.85;1.20;;;;;;;16.36;100.00;95979.47;5053555;28;24427;-77
2023/07/13 05:29:46;;;;;;;6.07;1.60;;;;;;;16.37;100.00;95979.34;5042981;28;24439;-76
2023/07/13 05:32:13;;;;;;;2.60;1.40;;;;;;;16.39;100.00;95987.06;5045854;28;24459;-77
2023/07/13 05:34:39;;;;;;;4.82;1.48;;;;;;;16.22;100.00;95983.22;5047763;28;24811;-77
2023/07/13 05:37:05;;;;;;;5.73;1.77;;;;;;;16.31;100.00;95985.06;5044038;28;24995;-77
2023/07/13 05:39:33;;;;;;;4.70;1.63;;;;;;;16.33;100.00;95982.34;5050699;28;24435;-77
2023/07/13 05:42:00;;;;;;;3.33;1.50;;;;;;;16.33;100.00;95984.94;5051328;28;24431;-77
2023/07/13 05:44:26;;;;;;;5.18;1.52;;;;;;;16.37;100.00;95986.34;5059658;28;24419;-77
2023/07/13 05:46:52;;;;;;;3.63;1.73;;;;;;;16.38;100.00;95993.22;5056898;28;25028;-77
2023/07/13 05:49:19;;;;;;;4.47;1.80;;;;;;;16.32;100.00;95993.75;5054217;28;24443;-76
2023/07/13 05:51:45;;;;;;;3.72;1.60;;;;;;;16.40;100.00;96004.41;5066967;28;24447;-77
2023/07/13 05:54:12;;;;;;;4.77;1.50;;;;;;;16.41;100.00;96006.06;5054929;28;24442;-77
2023/07/13 05:56:40;;;;;;;8.00;2.05;;;;;;;16.45;100.00;96005.66;5051375;28;24509;-77
2023/07/13 05:59:06;;;;;;;6.20;1.95;;;;;;;16.58;100.00;96008.13;5057949;28;24485;-77
2023/07/13 06:01:32;;;;;;;5.25;2.15;;;;;;;16.55;100.00;96016.22;5057392;28;24443;-77
2023/07/13 06:03:59;;;;;;;7.97;2.60;;;;;;;16.65;100.00;96016.28;5059936;28;24439;-77
2023/07/13 06:06:25;;;;;;;7.07;2.35;;;;;;;16.69;100.00;96021.13;5056068;28;24446;-76
2023/07/13 06:08:52;;;;;;;5.53;1.98;;;;;;;16.74;100.00;96028.63;5045002;28;24438;-77
2023/07/13 06:11:20;;;;;;;4.43;1.70;;;;;;;16.71;100.00;96023.59;5053937;28;24459;-77
2023/07/13 06:13:48;;;;;;;8.70;1.88;;;;;;;17.01;100.00;96030.69;5052752;28;24438;-77
2023/07/13 06:16:15;;;;;;;4.95;1.70;;;;;;;16.99;100.00;96034.41;5058829;28;24492;-77
2023/07/13 06:18:42;;;;;;;4.10;1.30;;;;;;;17.15;100.00;96035.59;5045753;28;24521;-76
2023/07/13 06:21:10;;;;;;;7.03;1.60;;;;;;;17.48;100.00;96049.38;5055213;28;24806;-77
2023/07/13 06:23:37;;;;;;;15.02;1.42;;;;;;;17.73;100.00;96042.88;5052035;28;24461;-77
2023/07/13 06:26:04;;;;;;;4.05;1.50;;;;;;;17.74;99.26;96041.88;5054908;28;24462;-76
2023/07/13 06:28:31;;;;;;;4.05;1.80;;;;;;;17.83;97.31;96046.34;5050321;28;24489;-77
2023/07/13 06:30:59;;;;;;;2.70;1.27;;;;;;;18.01;99.60;96038.66;5047763;28;24474;-77
2023/07/13 06:33:25;;;;;;;5.87;1.97;;;;;;;18.33;97.08;96042.84;5052633;28;24524;-77
2023/07/13 06:35:52;;;;;;;6.72;1.80;;;;;;;18.22;96.66;96048.22;5043942;28;24438;-77
2023/07/13 06:38:19;;;;;;;3.40;1.40;;;;;;;18.14;94.25;96041.88;5049677;28;24979;-77
2023/07/13 06:40:46;;;;;;;2.88;1.23;;;;;;;18.41;95.15;96053.47;5057233;28;24516;-77
2023/07/13 06:43:12;;;;;;;2.90;1.40;;;;;;;18.27;95.44;96052.09;5059127;28;24461;-77
2023/07/13 06:45:42;;;;;;;2.93;1.20;;;;;;;18.31;96.01;96053.47;5046733;28;24446;-77
2023/07/13 06:48:10;;;;;;;3.47;1.40;;;;;;;18.49;95.62;96056.25;5054978;28;24506;-77
2023/07/13 06:50:36;;;;;;;3.53;1.35;;;;;;;18.69;92.12;96045.72;5052074;28;25052;-77
2023/07/13 06:53:03;;;;;;;4.50;1.43;;;;;;;18.67;90.64;96048.50;5059149;28;24454;-77
2023/07/13 06:55:29;;;;;;;2.75;1.10;;;;;;;18.56;88.42;96051.28;5055610;28;25034;-77
2023/07/13 06:57:56;;;;;;;3.33;1.48;;;;;;;18.72;82.99;96048.94;5049831;28;24431;-77
2023/07/13 07:00:22;;;;;;;3.75;1.40;;;;;;;18.91;82.01;96055.97;5057779;28;24480;-77
2023/07/13 07:02:49;;;;;;;3.63;1.45;;;;;;;19.05;78.37;96057.31;5048863;28;24442;-76
2023/07/13 07:05:17;;;;;;;3.55;1.50;;;;;;;19.65;78.86;96060.47;5061549;28;24431;-77
2023/07/13 07:07:43;;;;;;;3.47;1.60;;;;;;;19.57;72.57;96058.53;5055465;28;24992;-76
2023/07/13 07:10:10;;;;;;;2.30;1.30;;;;;;;19.93;72.14;96058.69;5059132;28;24438;-76
2023/07/13 07:12:36;;;;;;;6.72;1.58;;;;;;;20.05;68.79;96064.56;5058141;28;24585;-77
2023/07/13 07:15:03;;;;;;;6.10;1.45;;;;;;;20.18;66.33;96053.69;5048004;28;24426;-76
2023/07/13 07:17:30;;;;;;;3.30;1.33;;;;;;;19.98;67.30;96060.84;5043696;28;24439;-76
2023/07/13 07:19:56;;;;;;;4.40;1.60;;;;;;;19.82;67.15;96057.06;5039753;28;24493;-76
2023/07/13 07:22:27;;;;;;;2.50;1.30;;;;;;;20.31;65.20;96062.03;5048392;28;24454;-76
2023/07/13 07:24:53;;;;;;;5.18;1.50;;;;;;;20.34;62.67;96061.75;5057509;28;24438;-77
2023/07/13 07:27:20;;;;;;;2.30;1.27;;;;;;;20.29;63.14;96059.56;5052967;28;24481;-77
2023/07/13 07:29:46;;;;;;;3.50;1.00;;;;;;;20.57;60.79;96059.50;5037577;28;24790;-76
2023/07/13 07:32:13;;;;;;;5.30;1.40;;;;;;;20.45;61.86;96051.00;5054112;28;24533;-77
2023/07/13 07:34:39;;;;;;;5.43;1.35;;;;;;;20.58;61.76;96045.41;5057747;28;25000;-76
2023/07/13 07:37:06;;;;;;;6.38;1.35;;;;;;;20.34;61.16;96056.47;5052497;28;24567;-76
2023/07/13 07:39:34;;;;;;;2.75;1.30;;;;;;;20.83;63.15;96053.47;5059740;28;24435;-76
2023/07/13 07:42:00;;;;;;;3.97;1.40;;;;;;;21.34;58.84;96050.06;5057212;28;24434;-75
2023/07/13 07:44:28;;;;;;;2.63;1.33;;;;;;;21.67;57.26;96053.72;5063379;28;24439;-74
2023/07/13 07:46:54;;;;;;;4.05;1.50;;;;;;;21.46;56.78;96051.44;5050603;28;24547;-74
2023/07/13 07:49:21;;;;;;;2.28;1.10;;;;;;;21.44;56.26;96044.72;5058577;28;24435;-75
2023/07/13 07:51:47;;;;;;;3.70;1.40;;;;;;;21.46;57.83;96053.28;5064516;28;24446;-75
2023/07/13 07:54:14;;;;;;;2.97;1.20;;;;;;;21.63;56.67;96049.75;5048430;28;24814;-75
2023/07/13 07:56:42;;;;;;;3.42;1.27;;;;;;;21.38;55.21;96042.69;5054839;28;24492;-75
2023/07/13 07:59:09;;;;;;;2.15;1.20;;;;;;;21.92;53.63;96052.00;5053398;28;24493;-75
2023/07/13 08:01:36;;;;;;;3.17;1.30;;;;;;;22.19;53.65;96058.88;5046874;28;24431;-74
2023/07/13 08:04:03;;;;;;;2.45;1.05;;;;;;;22.77;53.74;96057.16;5058635;28;24431;-75
2023/07/13 08:06:30;;;;;;;4.25;1.23;;;;;;;22.33;51.08;96052.16;5046420;28;24446;-75
2023/07/13 08:08:56;;;;;;;2.85;1.10;;;;;;;22.05;52.68;96059.44;5060448;28;24431;-75
2023/07/13 08:11:23;;;;;;;3.30;1.38;;;;;;;21.78;53.17;96057.06;5054042;28;24436;-75
2023/07/13 08:13:52;;;;;;;2.35;1.30;;;;;;;21.79;52.77;96053.44;5039906;28;24454;-75
2023/07/13 08:16:18;;;;;;;6.35;1.33;;;;;;;21.84;53.05;96048.50;5051078;28;25039;-75
2023/07/13 08:18:44;;;;;;;2.08;0.98;;;;;;;21.94;51.25;96057.94;5045520;28;24442;-75
2023/07/13 08:21:11;;;;;;;3.80;1.33;;;;;;;22.49;54.08;96051.34;5051911;28;24438;-75
2023/07/13 08:23:38;;;;;;;3.58;1.45;;;;;;;22.72;49.67;96051.50;5049659;28;24439;-75
2023/07/13 08:26:05;;;;;;;3.05;1.13;;;;;;;22.25;47.37;96048.66;5062993;28;24458;-75
2023/07/13 08:28:33;;;;;;;6.38;1.52;;;;;;;21.92;48.36;96051.19;5048073;28;25004;-74
2023/07/13 08:31:03;;;;;;;5.70;1.38;;;;;;;21.91;48.26;96046.88;5056163;28;24486;-75
2023/07/13 08:33:29;;;;;;;2.80;1.20;;;;;;;22.28;47.53;96046.50;5047228;28;24444;-75
2023/07/13 08:35:55;;;;;;;3.47;1.33;;;;;;;22.42;47.24;96056.44;5047184;28;24485;-75
2023/07/13 08:38:22;;;;;;;5.55;1.30;;;;;;;22.96;45.53;96049.91;5045922;28;24435;-75
2023/07/13 08:40:53;;;;;;;6.15;1.42;;;;;;;23.23;44.58;96043.44;5057255;28;24499;-75
2023/07/13 08:43:28;;;;;;;3.05;1.25;;;;;;;23.14;44.56;96047.91;5050827;28;24427;-75
2023/07/13 08:46:01;;;;;;;3.20;1.30;;;;;;;23.25;47.87;96044.06;5043066;28;24482;-75
2023/07/13 08:48:33;;;;;;;1.55;1.10;;;;;;;22.68;47.06;96053.66;5055529;28;24534;-75
2023/07/13 08:51:05;;;;;;;2.63;1.20;;;;;;;22.09;48.35;96052.88;5053963;28;24488;-74
2023/07/13 08:53:37;;;;;;;7.00;1.30;;;;;;;21.92;49.95;96059.09;5057205;28;24918;-74
2023/07/13 08:56:08;;;;;;;5.22;1.52;;;;;;;21.89;47.86;96054.94;5035104;28;24841;-74
2023/07/13 08:58:34;;;;;;;4.32;1.30;;;;;;;21.86;46.72;96051.81;5043794;28;24430;-74
2023/07/13 09:01:12;;;;;;;4.38;1.38;;;;;;;21.77;48.34;96052.75;5049270;28;24439;-75
2023/07/13 09:03:47;;;;;;;3.42;1.23;;;;;;;21.65;46.11;96060.13;5040697;28;24531;-75
2023/07/13 09:06:15;;;;;;;2.75;1.20;;;;;;;22.08;45.47;96053.03;5049147;28;24523;-75
2023/07/13 09:08:54;;;;;;;3.22;1.30;;;;;;;22.24;45.78;96066.28;5048551;28;24436;-75
2023/07/13 09:11:35;;;;;;;6.05;1.13;;;;;;;22.30;47.04;96060.38;5051334;28;24825;-75
2023/07/13 09:14:14;;;;;;;5.05;1.75;;;;;;;22.05;45.63;96066.53;5053701;28;24462;-75
2023/07/13 09:16:42;;;;;;;2.75;1.38;;;;;;;21.95;45.92;96056.97;5047765;28;24806;-75
2023/07/13 09:19:25;;;;;;;10.93;1.35;;;;;;;21.67;46.89;96064.25;5049402;28;24427;-75
2023/07/13 09:21:54;;;;;;;3.88;1.10;;;;;;;21.96;47.93;96053.34;5063251;28;24785;-75
2023/07/13 09:24:30;;;;;;;2.35;1.10;;;;;;;22.58;45.18;96058.28;5059298;28;24438;-75
2023/07/13 09:26:58;;;;;;;5.05;1.10;;;;;;;22.28;44.29;96058.88;5052231;28;24438;-75
2023/07/13 09:29:29;;;;;;;2.75;1.27;;;;;;;22.09;44.27;96062.59;5062417;28;25014;-75
2023/07/13 09:31:59;;;;;;;3.20;1.13;;;;;;;22.65;42.44;96059.25;5054030;28;24433;-75
2023/07/13 09:34:30;;;;;;;4.93;1.30;;;;;;;22.90;41.41;96054.00;5055755;28;24447;-75
2023/07/13 09:36:57;;;;;;;1.75;0.93;;;;;;;23.70;44.94;96048.78;5046040;28;24532;-75
2023/07/13 09:39:28;;;;;;;2.25;1.08;;;;;;;24.21;40.84;96051.84;5053122;28;24987;-75
2023/07/13 09:42:01;;;;;;;7.43;1.30;;;;;;;24.33;45.45;96053.13;5045658;28;24434;-75
2023/07/13 09:44:30;;;;;;;2.22;0.90;;;;;;;24.34;40.23;96046.81;5056599;28;24513;-75
2023/07/13 09:46:58;;;;;;;5.70;1.40;;;;;;;23.72;41.15;96051.25;5042835;28;24431;-75
2023/07/13 09:49:27;;;;;;;7.13;1.35;;;;;;;22.88;42.96;96046.25;5040891;28;24801;-75
2023/07/13 09:51:59;;;;;;;4.32;1.27;;;;;;;22.35;45.20;96051.97;5066485;28;24915;-75
2023/07/13 09:54:26;;;;;;;2.28;1.35;;;;;;;22.15;44.48;96054.91;5054769;28;24448;-75
2023/07/13 09:56:56;;;;;;;3.15;1.25;;;;;;;22.29;44.46;96060.56;5062491;28;24525;-74
2023/07/13 09:59:24;;;;;;;3.58;1.30;;;;;;;22.11;45.67;96058.81;5055098;28;24519;-75
2023/07/13 10:01:52;;;;;;;2.65;1.20;;;;;;;22.74;47.01;96054.81;5055286;28;24437;-74
2023/07/13 10:04:19;;;;;;;3.95;1.20;;;;;;;22.93;44.42;96059.81;5058727;28;24427;-73
2023/07/13 10:06:48;;;;;;;6.00;1.58;;;;;;;23.65;45.14;96043.13;5054674;28;25055;-75
2023/07/13 10:09:18;;;;;;;4.30;1.20;;;;;;;23.71;42.98;96042.50;5056490;28;24439;-76
2023/07/13 10:11:46;;;;;;;3.80;1.30;;;;;;;23.24;42.87;96047.72;5057018;28;24452;-77
2023/07/13 10:14:15;;;;;;;6.93;1.30;;;;;;;23.04;43.24;96050.72;5043673;28;24474;-76
2023/07/13 10:16:44;;;;;;;2.90;1.08;;;;;;;22.92;45.45;96050.25;5055721;28;24531;-76
2023/07/13 10:19:16;;;;;;;3.30;1.20;;;;;;;23.07;44.07;96054.84;5037166;28;25008;-76
2023/07/13 10:21:52;;;;;;;4.40;1.48;;;;;;;22.94;43.19;96056.16;5055119;28;24431;-75
2023/07/13 10:24:21;;;;;;;5.45;1.17;;;;;;;22.88;43.23;96058.63;5049641;28;24509;-76
2023/07/13 10:26:56;;;;;;;2.90;1.15;;;;;;;22.84;43.88;96042.28;5055333;28;24435;-76
2023/07/13 10:29:26;;;;;;;7.05;1.20;;;;;;;22.92;44.06;96044.13;5052180;28;24434;-77
2023/07/13 10:31:53;;;;;;;2.60;1.40;;;;;;;23.08;42.49;96048.56;5046219;28;24434;-76
2023/07/13 10:34:19;;;;;;;5.43;1.45;;;;;;;23.29;43.68;96046.22;5043652;28;24885;-76
2023/07/13 10:36:48;;;;;;;2.45;1.20;;;;;;;23.84;41.03;96049.88;5045437;28;24446;-75
2023/07/13 10:39:19;;;;;;;3.65;1.33;;;;;;;23.96;39.72;96059.09;5059729;28;24433;-77
2023/07/13 10:41:51;;;;;;;5.38;1.38;;;;;;;23.36;42.32;96055.13;5042448;28;24436;-76
2023/07/13 10:44:25;;;;;;;7.88;1.48;;;;;;;23.46;41.94;96057.56;5053954;28;24439;-76
2023/07/13 10:46:53;;;;;;;2.40;1.23;;;;;;;23.39;41.99;96059.25;5054967;28;24439;-76
2023/07/13 10:49:20;;;;;;;4.60;1.35;;;;;;;22.81;41.67;96063.75;5041963;28;24969;-76
2023/07/13 10:51:47;;;;;;;3.45;1.23;;;;;;;23.20;42.38;96052.50;5045174;28;24992;-76
2023/07/13 10:54:21;;;;;;;2.80;1.10;;;;;;;23.75;40.94;96048.28;5047570;28;24458;-76
2023/07/13 10:56:51;;;;;;;4.20;1.27;;;;;;;24.33;41.49;96052.28;5047581;28;24510;-77
2023/07/13 10:59:20;;;;;;;2.33;1.35;;;;;;;24.33;40.23;96047.00;5055097;28;24431;-75
2023/07/13 11:01:54;;;;;;;3.10;1.20;;;;;;;24.72;38.86;96044.25;5043174;28;24435;-76
2023/07/13 11:04:21;;;;;;;5.10;1.40;;;;;;;24.10;38.08;96044.28;5052624;28;24441;-76
2023/07/13 11:06:50;;;;;;;5.15;1.48;;;;;;;24.07;39.16;96042.84;5045440;28;24563;-76
2023/07/13 11:09:38;;;;;;;6.53;1.48;;;;;;;24.25;42.56;96041.72;5059536;28;24435;-75
2023/07/13 11:12:14;;;;;;;3.10;1.55;;;;;;;23.34;41.50;96035.16;5038397;28;24523;-76
2023/07/13 11:14:44;;;;;;;3.05;1.50;;;;;;;23.13;43.68;96047.06;5039223;28;24448;-76
2023/07/13 11:17:36;;;;;;;4.15;1.20;;;;;;;22.79;42.87;96044.59;5041765;28;24450;-76
2023/07/13 11:20:24;;;;;;;4.72;1.27;;;;;;;22.91;43.70;96042.44;5058733;28;25024;-76
2023/07/13 11:22:53;;;;;;;5.28;1.63;;;;;;;23.34;43.17;96033.31;5049512;28;24453;-76
2023/07/13 11:25:29;;;;;;;3.77;1.40;;;;;;;23.95;43.33;96041.56;5056723;28;24435;-76
2023/07/13 11:28:15;;;;;;;6.97;1.77;;;;;;;24.36;41.49;96042.19;5051614;28;24877;-76
2023/07/13 11:30:44;;;;;;;3.63;1.30;;;;;;;24.69;41.08;96028.72;5043411;28;24460;-76
2023/07/13 11:33:18;;;;;;;5.57;1.53;;;;;;;24.69;39.47;96034.00;5060100;28;24451;-76
2023/07/13 11:35:50;;;;;;;6.05;1.45;;;;;;;24.37;37.58;96038.53;5030414;28;24443;-75
2023/07/13 11:38:19;;;;;;;4.05;1.45;;;;;;;24.12;39.41;96037.84;5054055;28;24442;-76
2023/07/13 11:40:49;;;;;;;3.10;1.50;;;;;;;23.38;41.02;96029.34;5052330;28;24431;-76
2023/07/13 11:43:17;;;;;;;3.00;1.70;;;;;;;23.46;43.13;96025.03;5056589;28;24430;-75
2023/07/13 11:45:43;;;;;;;2.97;1.35;;;;;;;23.34;43.12;96035.97;5053884;28;24432;-76
2023/07/13 11:48:21;;;;;;;4.10;1.67;;;;;;;23.37;43.22;96026.88;5051750;28;24521;-75
2023/07/13 11:50:53;;;;;;;3.45;1.23;;;;;;;23.46;41.31;96032.97;5048646;28;24428;-75
2023/07/13 11:53:20;;;;;;;4.20;1.30;;;;;;;23.55;42.18;96026.66;5046694;28;24470;-76
2023/07/13 11:55:49;;;;;;;4.10;1.50;;;;;;;23.46;41.10;96031.13;5054992;28;24967;-75
2023/07/13 11:58:21;;;;;;;3.67;1.45;;;;;;;23.41;41.54;96033.47;5050109;28;24451;-75
2023/07/13 12:00:49;;;;;;;4.50;1.67;;;;;;;23.54;40.33;96033.75;5048701;28;24438;-75
2023/07/13 12:03:20;;;;;;;3.40;1.42;;;;;;;23.80;40.58;96041.44;5057593;28;24430;-75